Seymour, Texas
Current Conditions -  °F | °C
As of 5:16 AM on Thursday 23 Oct 2014 (Local Time) from KF05 Reporting Station
Scattered Clouds Scattered Clouds  
Wind Chill: 61°   Ceiling: Unl
Heat Index: 61°   Visibility: 2.5mi
Dew Point: 59°   Wind: 0mph
Humidity: 94%   Direction: NA
Pressure: 30.1"   Gusts: NA
Location:  33.59°N, 99.26°W
Report Text: KF05 231016Z AUTO 00000KT 2 1/2SM SCT050 16/15 A3010 RMK AO2
Loading
Personal Weather Stations






























Interactive Weather Map
Tropical Storm Tracking
New forecast layout! Learn more

10-Day Weather Forecast

Advertisements
Track Severe Weather on mobile